createdAt,value
2023-04-18T03:31:41.856Z,0.373
2023-04-18T03:44:14.519Z,1.494
2023-04-18T03:49:20.413Z,3.735
2023-04-18T03:54:39.843Z,8.964
2023-04-18T04:00:25.300Z,17.928
2023-04-18T04:04:40.326Z,32.121
2023-04-18T04:07:18.471Z,41.085
2023-04-18T04:10:47.602Z,60.88
2023-04-18T04:13:20.765Z,75.447
2023-04-18T04:18:20.291Z,108.315
2023-04-18T04:23:20.390Z,151.641
2023-04-18T04:28:16.289Z,201.69
2023-04-18T04:31:55.665Z,233.064
2023-04-18T04:34:59.238Z,285.354
2023-04-18T04:41:25.601Z,436.248
2023-04-18T04:44:14.145Z,391.428
2023-04-18T04:48:13.817Z,493.02
2023-04-18T04:52:34.008Z,561.744
2023-04-18T04:57:15.981Z,1003.968
2023-04-18T05:00:50.364Z,1254.96
2023-04-18T05:03:59.145Z,1075.68
2023-04-18T05:07:02.733Z,1744.992
2023-04-18T05:10:57.361Z,1523.88
2023-04-18T05:14:06.154Z,1649.376
2023-04-18T05:17:04.700Z,1499.976
2023-04-18T05:20:23.606Z,1272.888
2023-04-18T05:23:01.773Z,1601.568
2023-04-18T05:26:00.365Z,1464.12
2023-04-18T05:28:38.511Z,1177.272
2023-04-18T05:31:52.303Z,1207.152
2023-04-18T05:35:31.656Z,1057.752
2023-04-18T05:38:20.084Z,1111.536
2023-04-18T05:41:59.418Z,1326.672
2023-04-18T05:45:13.346Z,1356.552
2023-04-18T05:47:46.424Z,1434.24
2023-04-18T05:50:29.694Z,1523.88
2023-04-18T05:54:29.488Z,1452.168
2023-04-18T05:57:48.519Z,1237.032
2023-04-18T06:00:21.582Z,1422.288
2023-04-18T06:04:31.685Z,2593.584
2023-04-18T06:07:09.691Z,3059.712
2023-04-18T06:09:58.057Z,1828.656
2023-04-18T06:12:51.595Z,1816.704
2023-04-18T06:15:29.744Z,2163.312
2023-04-18T06:19:09.178Z,2270.88
2023-04-18T06:22:17.895Z,2940.192
2023-04-18T06:24:56.077Z,2725.056
2023-04-18T06:27:31.315Z,1613.52
2023-04-18T06:30:07.409Z,1685.232
2023-04-18T06:32:50.655Z,1972.08
2023-04-18T06:36:14.717Z,2199.168
2023-04-18T06:38:47.769Z,2055.744
2023-04-18T06:41:20.858Z,1864.512
2023-04-18T06:44:03.916Z,1948.176
2023-04-18T06:47:07.857Z,1888.416
2023-04-18T06:51:07.537Z,1404.36
2023-04-18T06:54:06.167Z,1386.432
2023-04-18T06:56:43.501Z,1482.048
2023-04-18T06:59:37.004Z,2103.552
2023-04-18T07:02:51.033Z,2378.448
2023-04-18T07:05:24.003Z,2545.776
2023-04-18T07:08:54.457Z,2641.392
2023-04-18T07:11:36.361Z,2820.672
2023-04-18T07:15:05.532Z,2964.096
2023-04-18T07:18:04.153Z,2820.672
2023-04-18T07:20:38.102Z,3023.856
2023-04-18T07:25:37.392Z,3776.832
2023-04-18T07:29:27.163Z,3800.736
2023-04-18T07:35:13.946Z,4039.776
2023-04-18T07:39:39.194Z,3848.544
2023-04-18T07:42:27.518Z,3776.832
2023-04-18T07:45:36.288Z,4374.432
2023-04-18T07:48:14.550Z,5713.056
2023-04-18T07:51:18.130Z,7266.816
2023-04-18T07:54:57.505Z,6454.08
2023-04-18T07:58:01.210Z,5617.44
2023-04-18T08:00:34.244Z,5689.152
2023-04-18T08:03:38.100Z,6262.848
2023-04-18T08:06:31.561Z,7936.128
2023-04-18T08:11:11.978Z,6979.968
2023-04-18T08:14:19.166Z,5282.784
2023-04-18T08:17:02.481Z,6095.52
2023-04-18T08:20:16.362Z,7314.624
2023-04-18T08:23:12.282Z,10708.992
2023-04-18T08:25:57.074Z,7888.32
2023-04-18T08:28:32.171Z,11043.648
2023-04-18T08:31:35.787Z,11521.728
2023-04-18T08:34:19.615Z,8366.4
2023-04-18T08:37:02.807Z,7649.28
2023-04-18T08:41:58.738Z,7171.2
2023-04-18T08:44:41.988Z,6932.16
2023-04-18T08:50:52.950Z,8127.36
2023-04-18T08:53:26.047Z,7553.664
2023-04-18T08:56:39.893Z,6693.12
2023-04-18T08:59:13.128Z,6262.848
2023-04-18T09:02:26.883Z,7410.24
2023-04-18T09:05:10.074Z,8892.288
2023-04-18T09:08:03.691Z,8079.552
2023-04-18T09:10:51.964Z,9131.328
2023-04-18T09:15:12.066Z,8031.744
2023-04-18T09:18:00.478Z,8892.288
2023-04-18T09:20:33.529Z,7792.704
2023-04-18T09:23:37.194Z,7171.2
2023-04-18T09:26:20.481Z,7553.664
2023-04-18T09:29:03.781Z,9179.136
2023-04-18T09:31:57.169Z,9131.328
2023-04-18T09:35:11.068Z,10039.68
2023-04-18T09:38:04.594Z,10469.952
2023-04-18T09:40:37.664Z,11904.192
2023-04-18T09:43:20.978Z,9370.368
2023-04-18T09:46:50.170Z,8987.904
2023-04-18T09:49:23.232Z,9179.136
2023-04-18T09:52:01.393Z,8031.744
2023-04-18T09:55:20.321Z,7505.856
2023-04-18T09:58:39.307Z,8318.592
2023-04-18T10:01:42.981Z,8127.36
2023-04-18T10:04:20.205Z,9370.368
2023-04-18T10:06:53.279Z,8987.904
2023-04-18T10:09:26.323Z,9179.136
2023-04-18T10:13:21.037Z,9944.064
2023-04-18T10:16:29.769Z,9226.944
2023-04-18T10:19:02.802Z,8844.48
2023-04-18T10:22:21.816Z,7888.32
2023-04-18T10:24:54.881Z,8748.864
2023-04-18T10:27:33.080Z,8844.48
2023-04-18T10:30:11.263Z,8701.056
2023-04-18T10:32:44.425Z,8987.904
2023-04-18T10:35:17.421Z,8557.632
2023-04-18T10:38:15.997Z,8318.592
2023-04-18T10:40:54.180Z,7314.624
2023-04-18T10:44:02.906Z,7314.624
2023-04-18T10:46:46.248Z,8175.168
2023-04-18T10:49:26.037Z,8653.248
2023-04-18T10:52:22.908Z,8892.288
2023-04-18T10:55:06.216Z,8031.744
2023-04-18T10:58:20.213Z,8892.288
2023-04-18T11:01:03.401Z,8366.4
2023-04-18T11:05:23.595Z,6884.352
2023-04-18T11:09:45.434Z,7219.008
2023-04-18T11:12:26.921Z,7649.28
2023-04-18T11:15:35.611Z,8127.36
2023-04-18T11:20:36.565Z,9274.752
2023-04-18T11:23:24.939Z,7888.32
2023-04-18T11:26:06.286Z,7601.472
2023-04-18T11:29:15.070Z,6501.888
2023-04-18T11:32:03.503Z,8031.744
2023-04-18T11:34:51.708Z,8701.056
2023-04-18T11:37:24.853Z,8366.4
2023-04-18T11:39:55.599Z,8557.632
2023-04-18T11:43:36.851Z,8175.168
2023-04-18T11:47:57.162Z,6501.888
2023-04-18T11:51:26.250Z,6119.424
2023-04-18T11:54:04.506Z,6310.656
2023-04-18T11:57:02.976Z,6501.888
2023-04-18T11:59:41.072Z,6358.464
2023-04-18T12:02:16.469Z,5736.96
2023-04-18T12:05:07.992Z,5952.096
2023-04-18T12:08:16.309Z,6406.272
2023-04-18T12:10:54.462Z,6693.12
2023-04-18T12:14:18.601Z,5808.672
2023-04-18T12:17:01.877Z,6788.736
2023-04-18T12:19:55.359Z,6979.968
2023-04-18T12:22:28.355Z,6836.544
2023-04-18T12:25:01.363Z,6095.52
2023-04-18T12:27:44.620Z,6095.52
2023-04-18T12:30:38.194Z,6597.504
2023-04-18T12:33:46.877Z,4589.568
2023-04-18T12:37:10.976Z,3944.16
2023-04-18T12:39:59.355Z,4302.72
2023-04-18T12:43:28.521Z,4398.336
2023-04-18T12:46:32.184Z,4159.296
2023-04-18T12:51:28.052Z,5163.264
2023-04-18T12:56:23.890Z,5043.744
2023-04-18T12:59:02.034Z,4995.936
2023-04-18T13:02:40.027Z,4995.936
2023-04-18T13:05:30.855Z,5784.768
2023-04-18T13:08:31.967Z,4493.952
2023-04-18T13:11:25.450Z,4374.432
2023-04-18T13:15:20.179Z,4159.296
2023-04-18T13:17:53.231Z,4135.392
2023-04-18T13:20:51.815Z,4326.624
2023-04-18T13:23:24.898Z,3944.16
2023-04-18T13:26:03.118Z,4015.872
2023-04-18T13:28:56.499Z,4231.008
2023-04-18T13:31:55.078Z,3179.232
2023-04-18T13:34:50.669Z,4709.088
2023-04-18T13:38:35.113Z,3585.6
2023-04-18T13:41:12.539Z,5426.208
2023-04-18T13:43:46.426Z,3657.312
2023-04-18T13:50:03.895Z,3442.176
2023-04-18T13:53:21.868Z,2868.48
2023-04-18T13:58:09.324Z,2940.192
2023-04-18T14:01:16.271Z,3179.232
2023-04-18T14:04:30.209Z,2748.96
2023-04-18T14:07:08.314Z,2545.776
2023-04-18T14:09:46.484Z,2820.672
2023-04-18T14:13:23.775Z,6597.504
2023-04-18T14:15:56.835Z,6501.888
2023-04-18T14:20:01.710Z,3179.232
2023-04-18T14:23:25.806Z,4446.144
2023-04-18T14:26:03.993Z,3920.256
2023-04-18T14:28:47.246Z,4231.008
2023-04-18T14:31:35.649Z,4063.68
2023-04-18T14:34:08.687Z,3944.16
2023-04-18T14:37:02.095Z,4374.432
2023-04-18T14:43:43.930Z,2964.096
2023-04-18T14:46:27.278Z,2366.496
2023-04-18T14:49:15.729Z,3729.024
2023-04-18T14:52:24.392Z,3274.848
2023-04-18T14:54:57.366Z,2533.824
2023-04-18T14:57:45.753Z,2820.672
2023-04-18T15:03:22.463Z,2904.336
2023-04-18T15:06:20.928Z,2844.576
2023-04-18T15:08:59.156Z,2438.208
2023-04-18T15:12:06.220Z,2330.64
2023-04-18T15:14:44.401Z,2402.352
2023-04-18T15:17:22.575Z,2533.824
2023-04-18T15:20:16.027Z,2796.768
2023-04-18T15:22:54.191Z,2342.592
2023-04-18T15:25:42.617Z,3011.904
2023-04-18T15:30:02.729Z,3059.712
2023-04-18T15:32:46.003Z,2737.008
2023-04-18T15:35:29.284Z,3513.888
2023-04-18T15:38:27.864Z,3274.848
2023-04-18T15:41:56.735Z,2988
2023-04-18T15:44:29.759Z,3489.984
2023-04-18T15:47:13.090Z,2462.112
2023-04-18T15:49:51.217Z,2378.448
2023-04-18T15:53:40.800Z,2175.264
2023-04-18T15:56:49.529Z,2258.928
2023-04-18T15:59:37.923Z,2007.936
2023-04-18T16:02:10.993Z,2581.632
2023-04-18T16:05:04.470Z,2748.96
2023-04-18T16:07:57.948Z,3418.272
2023-04-18T16:10:31.064Z,2474.064
2023-04-18T16:13:19.423Z,2725.056
2023-04-18T16:16:12.927Z,2067.696
2023-04-18T16:18:51.117Z,2617.488
2023-04-18T16:21:44.469Z,2211.12
2023-04-18T16:24:38.360Z,2450.16
2023-04-18T16:28:32.696Z,1625.472
2023-04-18T16:31:26.212Z,1768.896
2023-04-18T16:34:29.794Z,1685.232
2023-04-18T16:37:07.960Z,1541.808
2023-04-18T16:39:46.057Z,1511.928
2023-04-18T16:42:29.377Z,1816.704
2023-04-18T16:45:12.667Z,1482.048
2023-04-18T16:47:50.795Z,1033.848
2023-04-18T16:50:49.354Z,1326.672
2023-04-18T16:53:42.856Z,1117.512
2023-04-18T16:56:15.964Z,1087.632
2023-04-18T16:59:04.243Z,1015.92
2023-04-18T17:01:57.786Z,866.52
2023-04-18T17:04:30.733Z,818.712
2023-04-18T17:08:40.745Z,932.256
2023-04-18T17:11:49.416Z,1482.048
2023-04-18T17:14:48.013Z,800.784
2023-04-18T17:20:14.408Z,732.06
2023-04-18T17:22:47.552Z,519.912
2023-04-18T17:25:46.109Z,600.588
2023-04-18T17:28:44.684Z,451.188
2023-04-18T17:33:40.469Z,412.344
2023-04-18T17:37:09.637Z,307.764
2023-04-18T17:40:48.943Z,243.522
2023-04-18T17:45:59.007Z,201.69
2023-04-18T17:48:42.294Z,173.304
2023-04-18T17:53:42.313Z,128.484
2023-04-18T17:58:22.945Z,97.857
2023-04-18T18:03:37.640Z,72.832
2023-04-18T18:07:47.515Z,51.916
2023-04-18T18:10:20.570Z,39.591
2023-04-18T18:15:55.677Z,18.675
2023-04-18T18:20:36.304Z,8.964
2023-04-18T18:24:00.366Z,5.229
2023-04-18T18:30:38.189Z,2.614
2023-04-18T18:36:23.195Z,0.747
2023-04-18T18:45:42.790Z,0
